createdAt,value
2019-02-08T00:02:09.948Z,1.90
2019-02-08T00:04:40.362Z,2.37
2019-02-08T00:07:11.596Z,3.10
2019-02-08T00:09:42.022Z,2.50
2019-02-08T00:12:12.481Z,2.07
2019-02-08T00:14:43.179Z,2.37
2019-02-08T00:17:13.634Z,2.43
2019-02-08T00:19:44.088Z,2.47
2019-02-08T00:22:15.425Z,2.03
2019-02-08T00:24:46.136Z,2.60
2019-02-08T00:27:16.586Z,2.47
2019-02-08T00:29:47.140Z,1.57
2019-02-08T00:32:17.628Z,2.30
2019-02-08T00:34:48.091Z,2.10
2019-02-08T00:37:18.585Z,2.00
2019-02-08T00:39:49.017Z,2.10
2019-02-08T00:42:19.436Z,2.20
2019-02-08T00:44:49.926Z,3.03
2019-02-08T00:47:20.323Z,2.00
2019-02-08T00:49:51.039Z,2.40
2019-02-08T00:52:21.427Z,2.10
2019-02-08T00:54:51.859Z,2.20
2019-02-08T00:57:22.635Z,1.73
2019-02-08T00:59:53.217Z,1.70
2019-02-08T01:02:23.684Z,2.10
2019-02-08T01:04:54.536Z,2.33
2019-02-08T01:07:24.974Z,2.17
2019-02-08T01:09:55.479Z,1.90
2019-02-08T01:12:25.934Z,1.40
2019-02-08T01:14:56.641Z,2.37
2019-02-08T01:17:27.058Z,1.67
2019-02-08T01:19:57.813Z,1.60
2019-02-08T01:22:28.268Z,2.23
2019-02-08T01:24:58.772Z,2.00
2019-02-08T01:27:29.192Z,2.60
2019-02-08T01:29:59.611Z,1.90
2019-02-08T01:32:30.062Z,1.70
2019-02-08T01:35:01.382Z,2.10
2019-02-08T01:37:31.806Z,1.60
2019-02-08T01:40:02.238Z,1.90
2019-02-08T01:42:32.662Z,1.70
2019-02-08T01:45:03.074Z,2.13
2019-02-08T01:47:33.500Z,2.33
2019-02-08T01:50:05.298Z,2.23
2019-02-08T01:52:35.691Z,2.53
2019-02-08T01:55:07.272Z,1.80
2019-02-08T01:57:40.905Z,2.27
2019-02-08T02:00:17.447Z,2.63
2019-02-08T02:02:47.858Z,2.40
2019-02-08T02:05:18.863Z,2.80
2019-02-08T02:07:49.697Z,2.50
2019-02-08T02:10:32.741Z,2.60
2019-02-08T02:13:03.234Z,3.60
2019-02-08T02:15:33.642Z,2.33
2019-02-08T02:18:04.279Z,2.97
2019-02-08T02:20:37.554Z,2.70
2019-02-08T02:23:10.266Z,2.63
2019-02-08T02:25:40.860Z,2.33
2019-02-08T02:28:11.367Z,3.10
2019-02-08T02:30:41.764Z,3.50
2019-02-08T02:33:13.580Z,3.83
2019-02-08T02:35:44.479Z,2.20
2019-02-08T02:38:14.970Z,3.23
2019-02-08T02:40:45.360Z,2.10
2019-02-08T02:43:15.812Z,3.03
2019-02-08T02:45:46.220Z,3.60
2019-02-08T02:48:16.660Z,2.90
2019-02-08T02:50:47.075Z,3.37
2019-02-08T02:53:17.519Z,4.23
2019-02-08T02:55:47.926Z,3.60
2019-02-08T02:58:18.367Z,3.90
2019-02-08T03:00:49.830Z,3.30
2019-02-08T03:03:20.278Z,4.43
2019-02-08T03:05:50.925Z,3.70
2019-02-08T03:08:21.352Z,3.60
2019-02-08T03:10:51.817Z,4.70
2019-02-08T03:13:22.258Z,4.37
2019-02-08T03:15:52.696Z,4.27
2019-02-08T03:18:23.155Z,3.57
2019-02-08T03:20:53.593Z,3.30
2019-02-08T03:23:24.039Z,3.90
2019-02-08T03:25:54.443Z,3.80
2019-02-08T03:28:24.856Z,4.00
2019-02-08T03:30:57.548Z,3.60
2019-02-08T03:33:28.081Z,3.90
2019-02-08T03:35:58.480Z,3.90
2019-02-08T03:38:28.895Z,4.10
2019-02-08T03:40:59.314Z,4.20
2019-02-08T03:43:29.889Z,3.57
2019-02-08T03:46:00.313Z,3.50
2019-02-08T03:48:30.793Z,3.30
2019-02-08T03:51:01.217Z,3.20
2019-02-08T03:53:31.607Z,3.83
2019-02-08T03:56:02.297Z,3.57
2019-02-08T03:58:32.818Z,4.37
2019-02-08T04:01:07.278Z,3.40
2019-02-08T04:03:37.922Z,4.73
2019-02-08T04:06:08.769Z,5.53
2019-02-08T04:08:39.225Z,3.47
2019-02-08T04:11:09.716Z,3.60
2019-02-08T04:13:40.230Z,3.57
2019-02-08T04:16:10.704Z,5.20
2019-02-08T04:18:42.488Z,3.70
2019-02-08T04:21:13.145Z,3.70
2019-02-08T04:23:43.567Z,3.50
2019-02-08T04:26:14.009Z,3.90
2019-02-08T04:28:44.430Z,3.70
2019-02-08T04:31:14.839Z,4.07
2019-02-08T04:33:45.259Z,3.20
2019-02-08T04:36:15.655Z,3.90
2019-02-08T04:38:46.090Z,3.60
2019-02-08T04:41:16.521Z,3.83
2019-02-08T04:43:46.933Z,3.60
2019-02-08T04:46:17.344Z,3.23
2019-02-08T04:48:47.782Z,4.13
2019-02-08T04:51:18.200Z,3.80
2019-02-08T04:53:48.624Z,4.10
2019-02-08T04:56:19.026Z,5.63
2019-02-08T04:58:49.471Z,3.63
2019-02-08T05:01:19.873Z,4.57
2019-02-08T05:03:50.292Z,4.20
2019-02-08T05:06:20.680Z,3.53
2019-02-08T05:08:51.125Z,4.43
2019-02-08T05:11:21.587Z,5.03
2019-02-08T05:13:52.050Z,4.60
2019-02-08T05:16:22.472Z,4.87
2019-02-08T05:18:52.921Z,5.30
2019-02-08T05:21:23.355Z,3.63
2019-02-08T05:23:53.776Z,4.10
2019-02-08T05:26:24.152Z,3.90
2019-02-08T05:28:54.610Z,4.80
2019-02-08T05:31:25.045Z,6.23
2019-02-08T05:33:55.599Z,4.47
2019-02-08T05:36:26.039Z,6.03
2019-02-08T05:38:56.489Z,4.20
2019-02-08T05:41:26.911Z,5.00
2019-02-08T05:43:57.306Z,5.10
2019-02-08T05:46:27.736Z,5.30
2019-02-08T05:48:58.119Z,4.20
2019-02-08T05:51:28.547Z,4.23
2019-02-08T05:53:59.005Z,4.37
2019-02-08T05:56:29.396Z,4.63
2019-02-08T05:59:00.016Z,4.23
2019-02-08T06:01:30.441Z,4.73
2019-02-08T06:04:00.917Z,5.20
2019-02-08T06:06:31.422Z,4.40
2019-02-08T06:09:01.899Z,4.90
2019-02-08T06:11:32.994Z,4.83
2019-02-08T06:14:03.649Z,5.50
2019-02-08T06:16:34.065Z,4.87
2019-02-08T06:19:05.575Z,4.20
2019-02-08T06:21:35.993Z,4.27
2019-02-08T06:24:06.645Z,6.67
2019-02-08T06:26:37.075Z,5.47
2019-02-08T06:29:07.553Z,6.20
2019-02-08T06:31:37.957Z,6.43
2019-02-08T06:34:08.417Z,4.90
2019-02-08T06:36:38.833Z,5.20
2019-02-08T06:39:12.461Z,5.50
2019-02-08T06:41:42.892Z,4.80
2019-02-08T06:44:13.447Z,5.80
2019-02-08T06:46:43.886Z,4.90
2019-02-08T06:49:14.306Z,6.20
2019-02-08T06:51:44.712Z,5.23
2019-02-08T06:54:15.198Z,5.03
2019-02-08T06:57:13.656Z,6.20
2019-02-08T06:59:49.290Z,5.20
2019-02-08T07:02:31.713Z,5.23
2019-02-08T07:05:24.122Z,5.40
2019-02-08T07:08:16.544Z,5.60
2019-02-08T07:11:04.513Z,4.87
2019-02-08T07:14:00.050Z,4.97
2019-02-08T07:16:38.025Z,5.70
2019-02-08T07:19:34.581Z,5.53
2019-02-08T07:22:30.157Z,5.27
2019-02-08T07:25:31.663Z,5.03
2019-02-08T07:28:20.950Z,4.53
2019-02-08T07:31:00.697Z,5.33
2019-02-08T07:33:56.100Z,4.77
2019-02-08T07:36:34.896Z,5.37
2019-02-08T07:39:27.587Z,4.73
2019-02-08T07:42:17.805Z,5.90
2019-02-08T07:45:06.648Z,5.30
2019-02-08T07:48:02.020Z,5.60
2019-02-08T07:50:46.705Z,8.27
2019-02-08T07:53:42.472Z,6.10
2019-02-08T07:56:30.033Z,5.57
2019-02-08T07:59:08.306Z,5.10
2019-02-08T08:02:02.132Z,5.90
2019-02-08T08:04:51.421Z,6.20
2019-02-08T08:07:44.958Z,5.47
2019-02-08T08:10:25.820Z,5.80
2019-02-08T08:13:06.793Z,5.63
2019-02-08T08:15:49.008Z,5.53
2019-02-08T08:18:54.104Z,5.70
2019-02-08T08:21:49.391Z,6.60
2019-02-08T08:24:52.364Z,5.77
2019-02-08T08:27:31.763Z,6.97
2019-02-08T08:30:32.202Z,6.13
2019-02-08T08:33:25.583Z,5.80
2019-02-08T08:36:56.317Z,4.70
2019-02-08T08:40:42.022Z,5.63
2019-02-08T08:44:05.047Z,5.30
2019-02-08T08:47:31.661Z,5.50
2019-02-08T08:51:11.040Z,5.63
2019-02-08T08:54:57.930Z,4.70
2019-02-08T08:58:22.195Z,5.63
2019-02-08T09:01:23.815Z,5.93
2019-02-08T09:04:43.365Z,4.60
2019-02-08T09:08:09.574Z,5.60
2019-02-08T09:11:17.927Z,4.57
2019-02-08T09:15:07.623Z,5.37
2019-02-08T09:18:32.976Z,4.90
2019-02-08T09:22:01.714Z,4.53
2019-02-08T09:25:53.744Z,5.67
2019-02-08T09:29:35.947Z,3.57
2019-02-08T09:32:45.535Z,3.67
2019-02-08T09:36:08.259Z,4.03
2019-02-08T09:40:12.359Z,4.03
2019-02-08T09:43:53.287Z,4.27
2019-02-08T09:47:17.735Z,2.60
2019-02-08T09:50:45.197Z,2.40
2019-02-08T09:54:23.747Z,2.70
2019-02-08T09:57:36.995Z,2.97
2019-02-08T10:00:46.486Z,2.70
2019-02-08T10:03:53.869Z,2.07
2019-02-08T10:07:30.371Z,1.93
2019-02-08T10:10:59.519Z,2.20
2019-02-08T10:14:22.729Z,2.50
2019-02-08T10:17:57.346Z,2.57
2019-02-08T10:21:28.452Z,2.30
2019-02-08T10:24:56.425Z,2.87
2019-02-08T10:28:33.730Z,2.57
2019-02-08T10:32:15.107Z,2.10
2019-02-08T10:35:56.819Z,1.63
2019-02-08T10:39:54.990Z,3.30
2019-02-08T10:43:21.540Z,1.67
2019-02-08T10:46:41.220Z,2.87
2019-02-08T10:50:13.046Z,1.97
2019-02-08T10:53:55.045Z,3.73
2019-02-08T10:57:19.619Z,2.90
2019-02-08T11:00:38.293Z,1.90
2019-02-08T11:04:12.459Z,1.83
2019-02-08T11:07:40.007Z,2.73
2019-02-08T11:10:53.949Z,2.07
2019-02-08T11:14:21.962Z,2.30
2019-02-08T11:18:14.013Z,2.60
2019-02-08T11:20:44.739Z,2.83
2019-02-08T11:23:15.137Z,2.17
2019-02-08T11:25:45.573Z,2.03
2019-02-08T11:28:16.019Z,2.03
2019-02-08T11:30:46.396Z,1.97
2019-02-08T11:33:16.822Z,1.67
2019-02-08T11:35:47.265Z,2.07
2019-02-08T11:38:17.707Z,1.93
2019-02-08T11:40:48.231Z,2.30
2019-02-08T11:43:18.644Z,2.17
2019-02-08T11:45:49.152Z,2.63
2019-02-08T11:48:19.804Z,1.83
2019-02-08T11:50:50.364Z,1.87
2019-02-08T11:53:20.741Z,2.23
2019-02-08T11:55:51.240Z,2.97
2019-02-08T11:58:21.620Z,2.50
2019-02-08T12:00:54.424Z,2.13
2019-02-08T12:03:24.832Z,2.10
2019-02-08T12:05:55.329Z,2.80
2019-02-08T12:08:25.767Z,2.60
2019-02-08T12:10:56.426Z,2.20
2019-02-08T12:13:26.938Z,4.30
2019-02-08T12:15:57.588Z,4.00
2019-02-08T12:18:28.354Z,3.17
2019-02-08T12:20:58.842Z,3.03
2019-02-08T12:23:29.290Z,2.27
2019-02-08T12:25:59.796Z,1.70
2019-02-08T12:28:31.798Z,2.50
2019-02-08T12:31:02.355Z,1.90
2019-02-08T12:33:32.945Z,3.53
2019-02-08T12:36:03.395Z,2.50
2019-02-08T12:38:33.890Z,3.90
2019-02-08T12:41:09.709Z,2.40
2019-02-08T12:43:36.813Z,4.70
2019-02-08T12:46:07.336Z,2.37
2019-02-08T12:48:38.226Z,3.00
2019-02-08T12:51:08.993Z,2.50
2019-02-08T12:53:39.526Z,1.60
2019-02-08T12:56:10.053Z,2.60
2019-02-08T12:58:41.082Z,2.20
2019-02-08T13:01:11.600Z,2.00
2019-02-08T13:03:42.077Z,1.60
2019-02-08T13:06:12.660Z,1.87
2019-02-08T13:08:43.097Z,2.23
2019-02-08T13:11:13.552Z,1.80
2019-02-08T13:13:44.050Z,1.57
2019-02-08T13:16:14.470Z,2.07
2019-02-08T13:18:44.997Z,15.43
2019-02-08T13:21:15.659Z,11.87
2019-02-08T13:23:46.098Z,12.43
2019-02-08T13:26:16.515Z,5.50
2019-02-08T13:28:46.993Z,20.43
2019-02-08T13:31:17.519Z,7.10
2019-02-08T13:33:47.942Z,17.63
2019-02-08T13:36:18.410Z,11.27
2019-02-08T13:38:48.880Z,3.50
2019-02-08T13:41:19.343Z,3.40
2019-02-08T13:43:49.749Z,2.13
2019-02-08T13:46:20.188Z,2.40
2019-02-08T13:48:50.615Z,2.33
2019-02-08T13:51:21.081Z,3.33
2019-02-08T13:53:51.619Z,3.07
2019-02-08T13:56:22.206Z,2.70
2019-02-08T13:58:52.722Z,2.17
2019-02-08T14:01:23.465Z,2.37
2019-02-08T14:03:53.930Z,2.87
2019-02-08T14:06:24.629Z,1.90
2019-02-08T14:08:55.045Z,2.00
2019-02-08T14:11:25.490Z,2.80
2019-02-08T14:13:56.126Z,2.83
2019-02-08T14:16:26.668Z,3.27
2019-02-08T14:18:57.125Z,3.20
2019-02-08T14:21:27.572Z,2.23
2019-02-08T14:23:58.228Z,2.00
2019-02-08T14:26:28.680Z,1.87
2019-02-08T14:28:59.099Z,1.70
2019-02-08T14:31:29.581Z,2.03
2019-02-08T14:34:00.009Z,1.50
2019-02-08T14:36:30.490Z,2.17
2019-02-08T14:39:01.056Z,1.83
2019-02-08T14:41:31.477Z,1.70
2019-02-08T14:44:02.087Z,1.43
2019-02-08T14:46:32.501Z,1.40
2019-02-08T14:49:03.057Z,1.57
2019-02-08T14:51:33.502Z,1.73
2019-02-08T14:54:05.854Z,1.30
2019-02-08T14:56:36.443Z,1.83
2019-02-08T14:59:07.264Z,1.50
2019-02-08T15:01:37.715Z,1.57
2019-02-08T15:04:08.285Z,1.30
2019-02-08T15:06:39.062Z,2.03
2019-02-08T15:09:12.778Z,1.33
2019-02-08T15:11:43.723Z,3.10
2019-02-08T15:14:14.607Z,1.30
2019-02-08T15:16:45.402Z,2.00
2019-02-08T15:19:16.810Z,1.70
2019-02-08T15:21:47.810Z,1.50
2019-02-08T15:24:18.277Z,1.53
2019-02-08T15:26:49.072Z,2.20
2019-02-08T15:29:19.784Z,1.97
2019-02-08T15:31:50.545Z,2.30
2019-02-08T15:34:21.098Z,2.37
2019-02-08T15:36:51.751Z,1.83
2019-02-08T15:39:22.613Z,1.77
2019-02-08T15:41:54.088Z,2.27
2019-02-08T15:44:25.006Z,2.00
2019-02-08T15:46:56.187Z,1.63
2019-02-08T15:49:27.720Z,1.50
2019-02-08T15:51:58.918Z,1.23
2019-02-08T15:54:29.906Z,1.70
2019-02-08T15:57:00.896Z,1.47
2019-02-08T15:59:32.278Z,1.57
2019-02-08T16:02:03.814Z,1.53
2019-02-08T16:04:34.844Z,1.17
2019-02-08T16:07:06.202Z,1.67
2019-02-08T16:09:36.710Z,1.63
2019-02-08T16:12:07.419Z,1.20
2019-02-08T16:14:38.334Z,0.97
2019-02-08T16:17:09.630Z,2.20
2019-02-08T16:19:41.258Z,1.90
2019-02-08T16:22:12.460Z,1.20
2019-02-08T16:24:43.257Z,1.63
2019-02-08T16:27:14.435Z,2.07
2019-02-08T16:29:44.880Z,1.77
2019-02-08T16:32:15.904Z,1.90
2019-02-08T16:34:47.309Z,2.20
2019-02-08T16:37:18.113Z,1.50
2019-02-08T16:39:49.595Z,1.20
2019-02-08T16:42:20.500Z,2.27
2019-02-08T16:44:51.076Z,1.97
2019-02-08T16:47:22.640Z,1.17
2019-02-08T16:49:53.693Z,2.70
2019-02-08T16:52:24.570Z,3.57
2019-02-08T16:54:55.504Z,2.30
2019-02-08T16:57:25.975Z,1.60
2019-02-08T16:59:57.608Z,3.27
2019-02-08T17:02:28.895Z,2.90
2019-02-08T17:05:00.301Z,2.60
2019-02-08T17:07:31.257Z,2.53
2019-02-08T17:10:02.218Z,2.50
2019-02-08T17:12:33.247Z,2.40
2019-02-08T17:15:05.560Z,3.77
2019-02-08T17:17:36.636Z,2.23
2019-02-08T17:20:10.258Z,2.37
2019-02-08T17:22:40.790Z,2.53
2019-02-08T17:25:11.468Z,2.03
2019-02-08T17:27:42.370Z,1.80
2019-02-08T17:30:15.539Z,2.13
2019-02-08T17:32:46.197Z,2.00
2019-02-08T17:35:18.225Z,2.60
2019-02-08T17:37:50.437Z,2.40
2019-02-08T17:40:24.798Z,3.10
2019-02-08T17:42:55.468Z,3.60
2019-02-08T17:45:26.148Z,3.37
2019-02-08T17:47:57.965Z,3.80
2019-02-08T17:50:28.841Z,4.20
2019-02-08T17:52:59.849Z,2.37
2019-02-08T17:55:30.532Z,2.27
2019-02-08T17:58:03.497Z,1.93
2019-02-08T18:00:45.428Z,1.90
2019-02-08T18:03:16.049Z,1.10
2019-02-08T18:05:46.768Z,1.60
2019-02-08T18:08:17.851Z,1.70
2019-02-08T18:10:48.501Z,2.20
2019-02-08T18:13:19.514Z,2.10
2019-02-08T18:15:50.247Z,2.30
2019-02-08T18:18:26.165Z,2.90
2019-02-08T18:21:03.911Z,2.30
2019-02-08T18:23:34.433Z,1.83
2019-02-08T18:26:05.648Z,2.17
2019-02-08T18:28:36.614Z,2.20
2019-02-08T18:31:07.405Z,2.00
2019-02-08T18:33:38.565Z,2.20
2019-02-08T18:36:09.881Z,2.10
2019-02-08T18:38:41.760Z,2.13
2019-02-08T18:41:13.181Z,3.50
2019-02-08T18:43:44.483Z,3.20
2019-02-08T18:46:15.975Z,2.77
2019-02-08T18:48:46.500Z,3.23
2019-02-08T18:51:17.461Z,2.17
2019-02-08T18:53:48.076Z,1.63
2019-02-08T18:56:18.720Z,1.80
2019-02-08T18:58:49.331Z,1.80
2019-02-08T19:01:20.391Z,2.10
2019-02-08T19:03:51.526Z,3.20
2019-02-08T19:06:22.125Z,2.00
2019-02-08T19:08:53.064Z,2.87
2019-02-08T19:11:23.939Z,2.33
2019-02-08T19:13:54.504Z,2.20
2019-02-08T19:16:25.288Z,2.07
2019-02-08T19:18:55.719Z,2.00
2019-02-08T19:21:26.198Z,3.07
2019-02-08T19:23:56.685Z,1.70
2019-02-08T19:26:27.156Z,1.87
2019-02-08T19:28:57.883Z,2.30
2019-02-08T19:31:28.428Z,1.67
2019-02-08T19:33:58.973Z,1.47
2019-02-08T19:36:29.423Z,1.40
2019-02-08T19:38:59.846Z,1.40
2019-02-08T19:41:30.466Z,2.40
2019-02-08T19:44:00.912Z,1.37
2019-02-08T19:46:31.610Z,1.50
2019-02-08T19:49:02.235Z,1.50
2019-02-08T19:51:32.855Z,1.60
2019-02-08T19:54:03.299Z,1.67
2019-02-08T19:56:33.872Z,1.30
2019-02-08T19:59:04.364Z,1.40
2019-02-08T20:01:34.925Z,1.30
2019-02-08T20:04:05.617Z,1.83
2019-02-08T20:06:36.218Z,1.40
2019-02-08T20:09:10.542Z,1.87
2019-02-08T20:11:40.997Z,10.37
2019-02-08T20:14:11.547Z,3.23
2019-02-08T20:16:42.343Z,2.80
2019-02-08T20:19:13.036Z,1.90
2019-02-08T20:21:43.830Z,1.63
2019-02-08T20:24:14.407Z,1.50
2019-02-08T20:26:45.177Z,1.70
2019-02-08T20:29:15.859Z,2.00
2019-02-08T20:31:46.381Z,2.07
2019-02-08T20:34:16.901Z,1.70
2019-02-08T20:36:47.461Z,1.80
2019-02-08T20:39:18.173Z,1.70
2019-02-08T20:41:48.742Z,1.60
2019-02-08T20:44:19.661Z,2.33
2019-02-08T20:46:50.409Z,2.17
2019-02-08T20:49:21.162Z,2.07
2019-02-08T20:51:51.907Z,1.70
2019-02-08T20:54:22.620Z,1.73
2019-02-08T20:56:58.765Z,1.60
2019-02-08T20:59:25.632Z,1.63
2019-02-08T21:01:56.266Z,1.67
2019-02-08T21:04:27.069Z,1.33
2019-02-08T21:06:59.020Z,1.97
2019-02-08T21:09:29.721Z,1.73
2019-02-08T21:12:00.434Z,1.37
2019-02-08T21:14:31.092Z,2.80
2019-02-08T21:17:01.797Z,1.73
2019-02-08T21:19:32.541Z,2.00
2019-02-08T21:22:03.675Z,2.90
2019-02-08T21:24:34.417Z,1.83
2019-02-08T21:27:05.742Z,1.90
2019-02-08T21:29:36.247Z,5.07
2019-02-08T21:32:07.246Z,4.10
2019-02-08T21:34:37.805Z,1.80
2019-02-08T21:37:08.427Z,2.37
2019-02-08T21:39:38.971Z,3.80
2019-02-08T21:42:09.496Z,3.27
2019-02-08T21:44:41.211Z,5.00
2019-02-08T21:47:12.753Z,1.97
2019-02-08T21:49:43.750Z,2.53
2019-02-08T21:52:14.298Z,2.40
2019-02-08T21:54:45.042Z,2.40
2019-02-08T21:57:15.618Z,2.00
2019-02-08T21:59:46.155Z,2.23
2019-02-08T22:02:16.869Z,2.80
2019-02-08T22:04:47.472Z,3.27
2019-02-08T22:07:18.049Z,2.90
2019-02-08T22:09:49.314Z,4.27
2019-02-08T22:12:19.859Z,2.73
2019-02-08T22:14:50.793Z,5.60
2019-02-08T22:17:21.579Z,3.03
2019-02-08T22:19:52.299Z,2.60
2019-02-08T22:22:22.880Z,2.53
2019-02-08T22:24:53.755Z,2.43
2019-02-08T22:27:24.497Z,2.80
2019-02-08T22:29:55.487Z,2.00
2019-02-08T22:32:26.224Z,2.33
2019-02-08T22:34:56.877Z,1.70
2019-02-08T22:37:27.385Z,1.63
2019-02-08T22:39:58.120Z,1.80
2019-02-08T22:42:28.803Z,1.63
2019-02-08T22:44:59.552Z,1.53
2019-02-08T22:47:30.065Z,1.60
2019-02-08T22:50:00.618Z,1.97
2019-02-08T22:52:31.144Z,1.70
2019-02-08T22:55:01.698Z,2.10
2019-02-08T22:57:32.294Z,2.17
2019-02-08T23:00:02.877Z,1.37
2019-02-08T23:02:35.751Z,1.73
2019-02-08T23:05:07.215Z,1.90
2019-02-08T23:07:38.031Z,1.50
2019-02-08T23:10:10.378Z,1.70
2019-02-08T23:12:40.870Z,1.50
2019-02-08T23:15:12.659Z,1.80
2019-02-08T23:17:43.132Z,1.53
2019-02-08T23:20:13.896Z,2.33
2019-02-08T23:22:44.345Z,2.53
2019-02-08T23:25:14.983Z,1.53
2019-02-08T23:27:45.363Z,1.50
2019-02-08T23:30:16.175Z,1.60
2019-02-08T23:32:46.776Z,2.13
2019-02-08T23:35:17.607Z,1.70
2019-02-08T23:37:48.179Z,2.10
2019-02-08T23:40:19.027Z,2.03
2019-02-08T23:42:49.770Z,2.40
2019-02-08T23:45:20.396Z,1.40
2019-02-08T23:47:50.793Z,1.83
2019-02-08T23:50:21.243Z,1.73
2019-02-08T23:52:51.654Z,1.43
2019-02-08T23:55:22.720Z,1.57
2019-02-08T23:57:53.228Z,1.50
